createdAt,value
2019-03-23T00:00:08.477Z,82.7
2019-03-23T00:01:07.207Z,82.5
2019-03-23T00:01:37.645Z,82.5
2019-03-23T00:03:05.658Z,82.4
2019-03-23T00:04:04.806Z,82.3
2019-03-23T00:05:04.045Z,82.2
2019-03-23T00:06:02.975Z,82.1
2019-03-23T00:07:02.429Z,82.1
2019-03-23T00:08:01.167Z,82.1
2019-03-23T00:09:00.604Z,82.1
2019-03-23T00:10:00.040Z,82
2019-03-23T00:10:58.765Z,81.9
2019-03-23T00:11:29.018Z,81.9
2019-03-23T00:11:59.555Z,81.9
2019-03-23T00:12:29.793Z,81.9
2019-03-23T00:13:56.297Z,81.7
2019-03-23T00:14:55.042Z,81.5
2019-03-23T00:15:54.270Z,81.5
2019-03-23T00:16:53.507Z,81.1
2019-03-23T00:17:52.844Z,80.8
2019-03-23T00:18:51.768Z,80.4
2019-03-23T00:19:50.685Z,80.4
2019-03-23T00:20:49.920Z,80.4
2019-03-23T00:21:20.474Z,80.4
2019-03-23T00:21:50.920Z,80.4
2019-03-23T00:22:21.469Z,80.4
2019-03-23T00:22:51.917Z,80.3
2019-03-23T00:23:22.567Z,80.3
2019-03-23T00:24:46.652Z,80.3
2019-03-23T00:25:45.484Z,80.3
2019-03-23T00:26:44.816Z,80.3
2019-03-23T00:27:43.846Z,80.5
2019-03-23T00:28:42.934Z,80.5
2019-03-23T00:29:42.276Z,80.5
2019-03-23T00:30:41.208Z,80.7
2019-03-23T00:31:11.860Z,80.7
2019-03-23T00:31:42.100Z,80.7
2019-03-23T00:32:12.647Z,80.7
2019-03-23T00:32:43.282Z,80.7
2019-03-23T00:33:13.428Z,80.7
2019-03-23T00:33:44.064Z,80.8
2019-03-23T00:34:14.547Z,80.8
2019-03-23T00:35:37.118Z,81
2019-03-23T00:36:42.043Z,81.1
2019-03-23T00:37:35.277Z,81
2019-03-23T00:38:34.483Z,81
2019-03-23T00:39:33.309Z,81.1
2019-03-23T00:40:32.444Z,81.3
2019-03-23T00:41:03.096Z,81.3
2019-03-23T00:41:33.741Z,81.4
2019-03-23T00:42:04.286Z,81.4
2019-03-23T00:42:34.517Z,81.4
2019-03-23T00:43:04.960Z,81.4
2019-03-23T00:43:35.605Z,81.4
2019-03-23T00:44:07.839Z,81.4
2019-03-23T00:44:36.487Z,81.4
2019-03-23T00:45:06.934Z,81.4
2019-03-23T00:46:27.506Z,81.6
2019-03-23T00:47:26.739Z,81.6
2019-03-23T00:48:25.682Z,81.6
2019-03-23T00:49:25.106Z,81.7
2019-03-23T00:50:24.072Z,81.8
2019-03-23T00:51:23.210Z,81.9
2019-03-23T00:51:53.754Z,81.9
2019-03-23T00:52:24.388Z,82
2019-03-23T00:52:55.035Z,82
2019-03-23T00:53:25.265Z,82
2019-03-23T00:53:55.714Z,82
2019-03-23T00:54:26.454Z,82.3
2019-03-23T00:54:56.683Z,82.3
2019-03-23T00:55:27.336Z,82.2
2019-03-23T00:55:57.977Z,82.2
2019-03-23T00:57:18.049Z,82.7
2019-03-23T00:58:17.278Z,82.8
2019-03-23T00:59:15.807Z,83.1
2019-03-23T01:00:15.063Z,83
2019-03-23T01:01:14.392Z,83.1
2019-03-23T01:01:44.958Z,83.1
2019-03-23T01:02:15.504Z,83
2019-03-23T01:02:46.067Z,83
2019-03-23T01:03:16.811Z,83.1
2019-03-23T01:03:47.452Z,83.1
2019-03-23T01:04:18.068Z,83.2
2019-03-23T01:04:48.713Z,83.2
2019-03-23T01:05:19.364Z,83.1
2019-03-23T01:05:50.005Z,83.1
2019-03-23T01:07:09.238Z,83.1
2019-03-23T01:08:08.068Z,83.2
2019-03-23T01:09:07.308Z,83.1
2019-03-23T01:10:06.554Z,83.1
2019-03-23T01:11:05.483Z,83
2019-03-23T01:12:04.709Z,82.9
2019-03-23T01:12:34.943Z,82.9
2019-03-23T01:13:05.185Z,83
2019-03-23T01:13:35.726Z,83
2019-03-23T01:14:06.373Z,83
2019-03-23T01:14:37.016Z,83
2019-03-23T01:15:07.559Z,83.1
2019-03-23T01:15:38.005Z,83.1
2019-03-23T01:17:00.489Z,83
2019-03-23T01:17:59.320Z,83
2019-03-23T01:18:58.551Z,82.9
2019-03-23T01:19:57.690Z,83
2019-03-23T01:20:56.913Z,83
2019-03-23T01:21:56.243Z,83
2019-03-23T01:22:54.979Z,83.2
2019-03-23T01:23:25.520Z,83.2
2019-03-23T01:23:56.003Z,83.3
2019-03-23T01:24:26.189Z,83.3
2019-03-23T01:24:56.740Z,83.3
2019-03-23T01:25:27.378Z,83.3
2019-03-23T01:26:51.774Z,83.2
2019-03-23T01:27:50.604Z,83.3
2019-03-23T01:28:49.838Z,83.2
2019-03-23T01:29:49.257Z,83.3
2019-03-23T01:30:48.092Z,83.4
2019-03-23T01:32:46.299Z,83.4
2019-03-23T01:33:45.525Z,83.3
2019-03-23T01:34:15.991Z,83.3
2019-03-23T01:34:46.448Z,83.3
2019-03-23T01:35:17.000Z,83.3
2019-03-23T01:36:42.994Z,83.2
2019-03-23T01:37:41.812Z,83.2
2019-03-23T01:38:41.034Z,83.3
2019-03-23T01:39:40.258Z,83.2
2019-03-23T01:40:39.386Z,83.2
2019-03-23T01:41:38.623Z,83.2
2019-03-23T01:42:37.472Z,83.2
2019-03-23T01:43:36.707Z,83.3
2019-03-23T01:44:35.634Z,83.2
2019-03-23T01:45:06.180Z,83.2
2019-03-23T01:46:34.286Z,83.2
2019-03-23T01:47:33.145Z,83.3
2019-03-23T01:48:32.576Z,83.3
2019-03-23T01:49:31.218Z,83.3
2019-03-23T01:50:30.547Z,83.5
2019-03-23T01:51:29.775Z,83.5
2019-03-23T01:52:28.599Z,83.6
2019-03-23T01:53:27.824Z,83.5
2019-03-23T01:54:27.163Z,83.5
2019-03-23T01:55:26.060Z,83.5
2019-03-23T01:55:56.764Z,83.5
2019-03-23T01:56:27.400Z,83.6
2019-03-23T01:57:24.527Z,83.6
2019-03-23T01:58:23.354Z,83.6
2019-03-23T01:59:22.784Z,83.6
2019-03-23T02:00:21.707Z,83.7
2019-03-23T02:00:51.948Z,83.7
2019-03-23T02:01:22.600Z,83.8
2019-03-23T02:02:19.911Z,83.9
2019-03-23T02:03:19.235Z,83.8
2019-03-23T02:04:18.065Z,83.9
2019-03-23T02:05:17.495Z,83.9
2019-03-23T02:06:16.424Z,83.9
2019-03-23T02:07:15.646Z,84.1
2019-03-23T02:08:14.874Z,84.1
2019-03-23T02:09:13.645Z,84.2
2019-03-23T02:10:13.027Z,84.2
2019-03-23T02:10:43.676Z,84.2
2019-03-23T02:11:14.252Z,84.2
2019-03-23T02:11:44.950Z,84.2
2019-03-23T02:12:15.099Z,84
2019-03-23T02:12:45.640Z,84
2019-03-23T02:13:15.876Z,84
2019-03-23T02:14:09.583Z,84
2019-03-23T02:15:08.515Z,84
2019-03-23T02:16:07.431Z,83.8
2019-03-23T02:17:06.658Z,83.9
2019-03-23T02:18:05.883Z,83.8
2019-03-23T02:19:04.804Z,83.7
2019-03-23T02:20:04.050Z,83.6
2019-03-23T02:20:34.496Z,83.6
2019-03-23T02:21:05.142Z,83.6
2019-03-23T02:21:35.696Z,83.6
2019-03-23T02:22:06.340Z,83.5
2019-03-23T02:22:36.889Z,83.5
2019-03-23T02:24:00.374Z,83.6
2019-03-23T02:24:59.702Z,83.6
2019-03-23T02:25:58.759Z,83.5
2019-03-23T02:26:58.085Z,83.5
2019-03-23T02:27:56.808Z,83.5
2019-03-23T02:28:56.154Z,83.4
2019-03-23T02:29:55.381Z,83.3
2019-03-23T02:30:26.127Z,83.3
2019-03-23T02:30:56.303Z,83.1
2019-03-23T02:31:26.863Z,83.1
2019-03-23T02:31:57.533Z,83.2
2019-03-23T02:32:27.639Z,83.2
2019-03-23T02:32:58.203Z,83.1
2019-03-23T02:33:28.500Z,83.1
2019-03-23T02:35:49.871Z,83.1
2019-03-23T02:36:49.059Z,83
2019-03-23T02:38:47.400Z,83
2019-03-23T02:39:46.270Z,82.9
2019-03-23T02:40:16.543Z,82.9
2019-03-23T02:40:47.203Z,82.6
2019-03-23T02:41:17.760Z,82.6
2019-03-23T02:41:48.011Z,82.7
2019-03-23T02:42:18.493Z,82.7
2019-03-23T02:42:49.042Z,82.6
2019-03-23T02:43:19.337Z,82.6
2019-03-23T02:43:49.982Z,82.6
2019-03-23T02:44:20.233Z,82.6
2019-03-23T02:45:41.279Z,82.6
2019-03-23T02:46:40.239Z,82.5
2019-03-23T02:47:39.583Z,82.2
2019-03-23T02:48:38.252Z,81.9
2019-03-23T02:49:37.720Z,81.6
2019-03-23T02:50:07.991Z,81.6
2019-03-23T02:50:38.648Z,81.5
2019-03-23T02:51:09.393Z,81.5
2019-03-23T02:51:40.178Z,81.4
2019-03-23T02:52:09.804Z,81.4
2019-03-23T02:52:40.568Z,81.3
2019-03-23T02:53:11.056Z,81.3
2019-03-23T02:53:41.621Z,81.2
2019-03-23T02:54:12.186Z,81.2
2019-03-23T02:55:32.584Z,81.1
2019-03-23T02:56:31.557Z,80.7
2019-03-23T02:57:30.402Z,80.6
2019-03-23T02:58:29.762Z,80.4
2019-03-23T02:59:28.508Z,80.5
2019-03-23T03:00:27.937Z,80.4
2019-03-23T03:00:58.605Z,80.4
2019-03-23T03:01:28.852Z,80.4
2019-03-23T03:01:59.112Z,80.4
2019-03-23T03:02:29.387Z,80.4
2019-03-23T03:02:59.769Z,80.4
2019-03-23T03:03:30.054Z,80.5
2019-03-23T03:04:00.720Z,80.5
2019-03-23T03:04:31.372Z,80.6
2019-03-23T03:05:02.046Z,80.6
2019-03-23T03:06:22.655Z,80.6
2019-03-23T03:07:21.489Z,80.6
2019-03-23T03:08:20.827Z,80.6
2019-03-23T03:09:20.184Z,80.7
2019-03-23T03:10:19.127Z,80.7
2019-03-23T03:11:18.385Z,80.6
2019-03-23T03:11:49.040Z,80.6
2019-03-23T03:12:19.295Z,80.6
2019-03-23T03:12:49.564Z,80.6
2019-03-23T03:13:19.831Z,80.5
2019-03-23T03:13:50.106Z,80.5
2019-03-23T03:14:20.775Z,80.4
2019-03-23T03:14:51.332Z,80.4
2019-03-23T03:16:13.921Z,80.2
2019-03-23T03:17:12.908Z,80.1
2019-03-23T03:18:12.142Z,80.1
2019-03-23T03:19:11.488Z,80
2019-03-23T03:20:10.479Z,79.9
2019-03-23T03:21:09.370Z,79.9
2019-03-23T03:21:39.980Z,79.9
2019-03-23T03:22:10.451Z,80
2019-03-23T03:22:40.917Z,80
2019-03-23T03:23:11.398Z,80
2019-03-23T03:23:41.977Z,80
2019-03-23T03:24:12.262Z,80
2019-03-23T03:24:42.505Z,80
2019-03-23T03:26:05.029Z,79.9
2019-03-23T03:27:04.489Z,79.9
2019-03-23T03:28:03.324Z,80
2019-03-23T03:29:02.584Z,80
2019-03-23T03:30:01.559Z,80.3
2019-03-23T03:31:00.624Z,80.4
2019-03-23T03:31:59.976Z,80.3
2019-03-23T03:32:30.585Z,80.3
2019-03-23T03:33:01.282Z,80.7
2019-03-23T03:33:31.650Z,80.7
2019-03-23T03:34:01.888Z,80.6
2019-03-23T03:34:32.235Z,80.6
2019-03-23T03:35:56.288Z,80.7
2019-03-23T03:36:55.631Z,80.8
2019-03-23T03:37:57.548Z,80.8
2019-03-23T03:38:53.496Z,80.8
2019-03-23T03:39:52.669Z,81.1
2019-03-23T03:40:51.827Z,81.2
2019-03-23T03:41:51.078Z,81.2
2019-03-23T03:42:50.420Z,81.3
2019-03-23T03:43:20.661Z,81.3
2019-03-23T03:43:50.934Z,81.5
2019-03-23T03:44:21.521Z,81.5
2019-03-23T03:44:51.819Z,81.6
2019-03-23T03:45:22.412Z,81.6
2019-03-23T03:45:52.607Z,81.8
2019-03-23T03:46:46.437Z,81.8
2019-03-23T03:47:45.818Z,82
2019-03-23T03:48:45.154Z,82
2019-03-23T03:49:43.908Z,82.2
2019-03-23T03:50:43.237Z,82.2
2019-03-23T03:51:42.212Z,82.3
2019-03-23T03:52:41.069Z,82.4
2019-03-23T03:53:40.509Z,82.4
2019-03-23T03:54:10.772Z,82.4
2019-03-23T03:54:41.027Z,82.4
2019-03-23T03:55:38.864Z,82.4
2019-03-23T03:56:37.818Z,82.5
2019-03-23T03:57:36.752Z,82.7
2019-03-23T03:58:36.103Z,82.9
2019-03-23T03:59:35.094Z,83
2019-03-23T04:00:34.268Z,83.1
2019-03-23T04:02:32.391Z,83.1
2019-03-23T04:03:31.874Z,83.2
2019-03-23T04:04:30.713Z,83.5
2019-03-23T04:05:30.190Z,83.4
2019-03-23T04:06:29.153Z,83.5
2019-03-23T04:07:27.991Z,83.7
2019-03-23T04:08:27.427Z,83.8
2019-03-23T04:09:26.285Z,84
2019-03-23T04:09:56.951Z,84
2019-03-23T04:10:27.608Z,84.1
2019-03-23T04:10:57.903Z,84.1
2019-03-23T04:11:28.150Z,84.1
2019-03-23T04:12:23.972Z,84.1
2019-03-23T04:13:22.832Z,84.2
2019-03-23T04:14:22.198Z,84.1
2019-03-23T04:15:21.078Z,84.1
2019-03-23T04:16:20.321Z,84.2
2019-03-23T04:17:19.170Z,84.2
2019-03-23T04:18:18.551Z,84.3
2019-03-23T04:19:17.495Z,84.3
2019-03-23T04:19:48.063Z,84.3
2019-03-23T04:20:18.735Z,84.3
2019-03-23T04:20:49.008Z,84.3
2019-03-23T04:22:15.062Z,84.5
2019-03-23T04:23:14.007Z,84.6
2019-03-23T04:24:13.363Z,84.5
2019-03-23T04:25:12.237Z,84.6
2019-03-23T04:26:11.601Z,84.6
2019-03-23T04:27:10.702Z,84.7
2019-03-23T04:28:09.648Z,84.7
2019-03-23T04:29:08.537Z,84.8
2019-03-23T04:29:39.142Z,84.8
2019-03-23T04:30:09.605Z,84.8
2019-03-23T04:30:39.795Z,84.8
2019-03-23T04:31:10.558Z,85.1
2019-03-23T04:31:41.236Z,85.1
2019-03-23T04:33:05.365Z,85.2
2019-03-23T04:34:04.226Z,85.4
2019-03-23T04:35:03.159Z,85.4
2019-03-23T04:36:02.597Z,85.8
2019-03-23T04:37:01.468Z,85.9
2019-03-23T04:38:00.807Z,85.9
2019-03-23T04:38:59.749Z,86
2019-03-23T04:39:30.445Z,86
2019-03-23T04:40:01.180Z,86.2
2019-03-23T04:40:31.434Z,86.2
2019-03-23T04:41:01.787Z,86.1
2019-03-23T04:41:32.544Z,86.1
2019-03-23T04:42:03.228Z,86
2019-03-23T04:42:33.773Z,86
2019-03-23T04:43:55.136Z,86.1
2019-03-23T04:44:54.376Z,86.1
2019-03-23T04:45:53.716Z,86.1
2019-03-23T04:46:52.543Z,86.1
2019-03-23T04:47:51.875Z,86.1
2019-03-23T04:48:50.602Z,86.1
2019-03-23T04:49:21.245Z,86.1
2019-03-23T04:49:51.382Z,86.1
2019-03-23T04:50:22.024Z,86.1
2019-03-23T04:50:52.674Z,86.1
2019-03-23T04:51:23.323Z,86.1
2019-03-23T04:51:53.564Z,86.1
2019-03-23T04:52:24.115Z,86.1
2019-03-23T04:52:54.767Z,86.1
2019-03-23T04:53:25.004Z,86.1
2019-03-23T04:54:45.275Z,85.9
2019-03-23T04:55:44.513Z,85.9
2019-03-23T04:56:43.835Z,85.7
2019-03-23T04:57:42.965Z,85.7
2019-03-23T04:58:41.793Z,85.7
2019-03-23T04:59:12.239Z,85.7
2019-03-23T04:59:42.992Z,85.7
2019-03-23T05:00:13.637Z,85.7
2019-03-23T05:00:44.185Z,85.8
2019-03-23T05:01:14.641Z,85.8
2019-03-23T05:01:44.893Z,85.8
2019-03-23T05:02:15.528Z,85.8
2019-03-23T05:02:46.262Z,85.8
2019-03-23T05:03:16.528Z,85.8
2019-03-23T05:04:36.594Z,85.7
2019-03-23T05:05:35.541Z,85.7
2019-03-23T05:06:34.976Z,85.7
2019-03-23T05:07:33.693Z,85.7
2019-03-23T05:08:34.138Z,85.8
2019-03-23T05:09:31.881Z,85.7
2019-03-23T05:10:02.529Z,85.7
2019-03-23T05:10:32.789Z,85.7
2019-03-23T05:11:03.325Z,85.7
2019-03-23T05:11:33.866Z,85.7
2019-03-23T05:12:04.319Z,85.7
2019-03-23T05:12:34.960Z,85.7
2019-03-23T05:13:05.501Z,85.7
2019-03-23T05:15:26.752Z,85.9
2019-03-23T05:16:25.977Z,85.9
2019-03-23T05:17:25.135Z,85.9
2019-03-23T05:18:23.954Z,85.9
2019-03-23T05:19:23.382Z,86.2
2019-03-23T05:20:22.104Z,86.1
2019-03-23T05:20:52.337Z,86.1
2019-03-23T05:21:22.878Z,86.4
2019-03-23T05:21:53.519Z,86.4
2019-03-23T05:22:24.054Z,86.6
2019-03-23T05:22:54.694Z,86.6
2019-03-23T05:24:18.680Z,86.4
2019-03-23T05:25:17.918Z,86.6
2019-03-23T05:26:16.859Z,86.5
2019-03-23T05:27:16.101Z,86.4
2019-03-23T05:28:15.325Z,86.5
2019-03-23T05:29:14.260Z,86.6
2019-03-23T05:30:13.199Z,86.7
2019-03-23T05:31:12.444Z,86.6
2019-03-23T05:31:43.091Z,86.6
2019-03-23T05:32:13.660Z,86.7
2019-03-23T05:32:44.332Z,86.7
2019-03-23T05:34:09.733Z,86.8
2019-03-23T05:35:08.866Z,87
2019-03-23T05:36:07.709Z,86.9
2019-03-23T05:37:07.040Z,87
2019-03-23T05:38:06.277Z,87.1
2019-03-23T05:39:05.100Z,87
2019-03-23T05:40:04.537Z,87.1
2019-03-23T05:41:03.264Z,87
2019-03-23T05:41:33.911Z,87
2019-03-23T05:42:04.571Z,87.2
2019-03-23T05:42:35.252Z,87.2
2019-03-23T05:44:00.657Z,87.1
2019-03-23T05:44:59.890Z,87.1
2019-03-23T05:45:59.025Z,87.2
2019-03-23T05:46:57.878Z,87
2019-03-23T05:47:57.213Z,86.9
2019-03-23T05:48:56.049Z,86.9
2019-03-23T05:49:55.370Z,86.8
2019-03-23T05:51:53.391Z,86.8
2019-03-23T05:52:23.933Z,86.8
2019-03-23T05:53:51.750Z,86.8
2019-03-23T05:54:50.667Z,86.8
2019-03-23T05:55:50.085Z,86.7
2019-03-23T05:56:48.815Z,86.7
2019-03-23T05:57:48.260Z,86.7
2019-03-23T05:58:47.091Z,86.5
2019-03-23T05:59:46.423Z,86.5
2019-03-23T06:00:45.359Z,86.3
2019-03-23T06:01:44.592Z,86.3
2019-03-23T06:02:43.472Z,86.3
2019-03-23T06:03:14.115Z,86.3
2019-03-23T06:03:44.663Z,86.2
2019-03-23T06:04:41.884Z,86.1
2019-03-23T06:05:40.715Z,86.1
2019-03-23T06:06:40.039Z,86
2019-03-23T06:07:39.159Z,86.1
2019-03-23T06:08:09.825Z,86.1
2019-03-23T06:08:40.378Z,86
2019-03-23T06:09:11.019Z,86
2019-03-23T06:09:41.660Z,86
2019-03-23T06:10:36.365Z,86
2019-03-23T06:11:35.691Z,86
2019-03-23T06:13:33.832Z,86
2019-03-23T06:15:31.652Z,85.7
2019-03-23T06:16:30.998Z,85.7
2019-03-23T06:17:30.323Z,85.5
2019-03-23T06:18:00.974Z,85.5
2019-03-23T06:18:31.516Z,85.5
2019-03-23T06:19:02.264Z,85.5
2019-03-23T06:20:27.167Z,85.4
2019-03-23T06:21:26.296Z,85.3
2019-03-23T06:22:25.621Z,85.2
2019-03-23T06:23:24.464Z,85.2
2019-03-23T06:24:23.887Z,85.2
2019-03-23T06:25:23.145Z,85.1
2019-03-23T06:26:22.014Z,85
2019-03-23T06:27:20.935Z,85
2019-03-23T06:27:51.574Z,85
2019-03-23T06:28:22.115Z,85
2019-03-23T06:28:52.748Z,85
2019-03-23T06:29:23.391Z,84.9
2019-03-23T06:29:53.837Z,84.9
2019-03-23T06:31:17.727Z,84.5
2019-03-23T06:32:16.645Z,84.3
2019-03-23T06:33:15.670Z,84
2019-03-23T06:34:15.009Z,83.8
2019-03-23T06:35:13.938Z,83.5
2019-03-23T06:36:13.176Z,83.3
2019-03-23T06:37:12.408Z,83.1
2019-03-23T06:37:42.896Z,83.1
2019-03-23T06:38:13.543Z,82.9
2019-03-23T06:38:44.162Z,82.9
2019-03-23T06:39:14.600Z,82.9
2019-03-23T06:39:45.143Z,82.9
2019-03-23T06:40:15.692Z,82.5
2019-03-23T06:40:46.229Z,82.5
2019-03-23T06:42:07.703Z,82.1
2019-03-23T06:43:06.938Z,81.9
2019-03-23T06:44:05.858Z,81.6
2019-03-23T06:45:05.085Z,81.4
2019-03-23T06:46:04.221Z,81
2019-03-23T06:47:03.141Z,81.1
2019-03-23T06:47:33.787Z,81.1
2019-03-23T06:48:04.132Z,80.8
2019-03-23T06:48:34.697Z,80.8
2019-03-23T06:49:05.136Z,80.8
2019-03-23T06:49:35.435Z,80.8
2019-03-23T06:50:05.681Z,80.7
2019-03-23T06:50:35.835Z,80.7
2019-03-23T06:51:06.276Z,80.6
2019-03-23T06:51:36.633Z,80.6
2019-03-23T06:52:57.814Z,80.4
2019-03-23T06:53:57.085Z,80.3
2019-03-23T06:54:55.907Z,80.2
2019-03-23T06:55:55.336Z,80.3
2019-03-23T06:56:54.580Z,80
2019-03-23T06:57:25.124Z,80
2019-03-23T06:57:55.672Z,80
2019-03-23T06:58:26.226Z,80
2019-03-23T06:58:56.776Z,80
2019-03-23T06:59:27.007Z,80
2019-03-23T06:59:57.259Z,79.7
2019-03-23T07:00:27.811Z,79.7
2019-03-23T07:00:58.555Z,79.6
2019-03-23T07:01:29.100Z,79.6
2019-03-23T07:01:59.340Z,79.5
2019-03-23T07:02:29.981Z,79.5
2019-03-23T07:03:48.024Z,79.3
2019-03-23T07:04:47.446Z,79.1
2019-03-23T07:05:46.273Z,78.8
2019-03-23T07:06:45.507Z,78.7
2019-03-23T07:07:44.332Z,78.6
2019-03-23T07:08:14.974Z,78.6
2019-03-23T07:08:45.421Z,78.6
2019-03-23T07:09:16.813Z,78.6
2019-03-23T07:09:46.352Z,78.8
2019-03-23T07:10:17.204Z,78.8
2019-03-23T07:10:47.439Z,78.8
2019-03-23T07:11:17.993Z,78.8
2019-03-23T07:11:48.640Z,78.6
2019-03-23T07:12:18.883Z,78.6
2019-03-23T07:13:39.364Z,79.1
2019-03-23T07:14:38.686Z,79
2019-03-23T07:15:37.478Z,78.9
2019-03-23T07:16:36.718Z,78.7
2019-03-23T07:17:35.635Z,78.7
2019-03-23T07:18:34.880Z,78.7
2019-03-23T07:19:05.127Z,78.7
2019-03-23T07:19:35.267Z,78.4
2019-03-23T07:20:06.022Z,78.4
2019-03-23T07:20:36.670Z,77.9
2019-03-23T07:21:07.312Z,77.9
2019-03-23T07:21:37.754Z,77.8
2019-03-23T07:22:08.393Z,77.8
2019-03-23T07:23:30.369Z,77.6
2019-03-23T07:24:29.799Z,77.2
2019-03-23T07:25:28.720Z,77
2019-03-23T07:26:27.947Z,76.9
2019-03-23T07:27:27.279Z,76.9
2019-03-23T07:28:26.102Z,76.8
2019-03-23T07:29:25.372Z,76.6
2019-03-23T07:29:56.040Z,76.6
2019-03-23T07:30:26.274Z,76.7
2019-03-23T07:30:56.816Z,76.7
2019-03-23T07:31:27.355Z,76.8
2019-03-23T07:32:06.404Z,76.8
2019-03-23T07:33:21.848Z,76.8
2019-03-23T07:34:20.774Z,76.7
2019-03-23T07:35:20.104Z,76.5
2019-03-23T07:36:19.440Z,76.6
2019-03-23T07:37:18.215Z,76.6
2019-03-23T07:38:17.654Z,76.7
2019-03-23T07:39:30.207Z,76.7
2019-03-23T07:39:47.049Z,76.7
2019-03-23T07:40:17.720Z,76.6
2019-03-23T07:40:47.860Z,76.6
2019-03-23T07:41:18.339Z,76.4
2019-03-23T07:41:48.994Z,76.4
2019-03-23T07:43:13.178Z,76
2019-03-23T07:44:12.109Z,76.1
2019-03-23T07:45:11.536Z,76.2
2019-03-23T07:46:10.684Z,76.1
2019-03-23T07:47:09.629Z,76
2019-03-23T07:48:08.870Z,76.1
2019-03-23T07:49:07.703Z,76.1
2019-03-23T07:50:07.037Z,75.4
2019-03-23T07:50:37.275Z,75.4
2019-03-23T07:51:07.630Z,75.2
2019-03-23T07:51:38.277Z,75.2
2019-03-23T07:52:08.845Z,75.3
2019-03-23T07:52:39.482Z,75.3
2019-03-23T07:53:10.137Z,75.2
2019-03-23T07:54:03.520Z,74.9
2019-03-23T07:55:02.969Z,74.3
2019-03-23T07:56:01.815Z,74.5
2019-03-23T07:57:01.154Z,74.2
2019-03-23T07:58:00.511Z,74.1
2019-03-23T07:58:59.136Z,73.7
2019-03-23T07:59:58.561Z,73.5
2019-03-23T08:00:57.477Z,73
2019-03-23T08:01:27.924Z,73
2019-03-23T08:01:58.162Z,72.9
2019-03-23T08:02:55.982Z,72.7
2019-03-23T08:03:54.910Z,72.4
2019-03-23T08:04:54.357Z,72.1
2019-03-23T08:05:53.487Z,72
2019-03-23T08:06:52.769Z,72
2019-03-23T08:07:51.694Z,71.9
2019-03-23T08:08:51.120Z,71.5
2019-03-23T08:09:49.849Z,70.2
2019-03-23T08:10:49.178Z,70.3
2019-03-23T08:12:47.293Z,70.1
2019-03-23T08:13:46.432Z,69.6
2019-03-23T08:14:45.686Z,69.9
2019-03-23T08:15:45.055Z,69
2019-03-23T08:16:44.033Z,69.3
2019-03-23T08:17:14.477Z,69.3
2019-03-23T08:17:45.029Z,69.1
2019-03-23T08:18:15.533Z,69.1
2019-03-23T08:18:46.086Z,68.9
2019-03-23T08:19:41.515Z,68.5
2019-03-23T08:20:40.751Z,68.3
2019-03-23T08:21:39.681Z,68.1
2019-03-23T08:22:38.834Z,68.4
2019-03-23T08:23:38.059Z,68.4
2019-03-23T08:24:37.381Z,68
2019-03-23T08:25:36.613Z,67.9
2019-03-23T08:26:35.534Z,67.7
2019-03-23T08:27:05.973Z,67.7
2019-03-23T08:27:36.709Z,67.8
2019-03-23T08:28:07.356Z,67.8
2019-03-23T08:29:33.370Z,67.9
2019-03-23T08:30:32.104Z,68
2019-03-23T08:31:31.325Z,67.5
2019-03-23T08:32:30.558Z,67.4
2019-03-23T08:33:29.784Z,67.6
2019-03-23T08:34:29.131Z,66.9
2019-03-23T08:35:27.898Z,66.8
2019-03-23T08:36:27.326Z,66.7
2019-03-23T08:36:57.878Z,66.7
2019-03-23T08:37:28.621Z,66.8
2019-03-23T08:37:59.180Z,66.8
2019-03-23T08:38:29.918Z,66.7
2019-03-23T08:39:00.363Z,66.7
2019-03-23T08:40:23.836Z,66.8
2019-03-23T08:41:23.207Z,66.2
2019-03-23T08:42:22.039Z,66.4
2019-03-23T08:43:21.472Z,66.4
2019-03-23T08:44:20.806Z,66.7
2019-03-23T08:45:19.626Z,66.4
2019-03-23T08:46:18.944Z,66.2
2019-03-23T08:46:49.488Z,66.2
2019-03-23T08:47:19.947Z,66.1
2019-03-23T08:47:50.591Z,66.1
2019-03-23T08:48:21.035Z,66.2
2019-03-23T08:48:51.679Z,66.2
2019-03-23T08:49:22.320Z,65.6
2019-03-23T08:49:52.555Z,65.6
2019-03-23T08:52:13.824Z,64.9
2019-03-23T08:53:13.152Z,64.8
2019-03-23T08:54:12.482Z,64.6
2019-03-23T08:55:11.730Z,64.7
2019-03-23T08:56:10.554Z,64
2019-03-23T08:56:40.785Z,64
2019-03-23T08:57:11.328Z,63.4
2019-03-23T08:57:41.963Z,63.4
2019-03-23T08:58:12.544Z,63.7
2019-03-23T08:58:42.890Z,63.7
2019-03-23T08:59:13.431Z,63.6
2019-03-23T08:59:44.072Z,63.6
2019-03-23T09:00:14.725Z,63.7
2019-03-23T09:00:45.274Z,63.7
2019-03-23T09:02:05.649Z,64
2019-03-23T09:03:05.081Z,64
2019-03-23T09:04:04.345Z,63.5
2019-03-23T09:05:03.471Z,63.5
2019-03-23T09:06:02.613Z,63.5
2019-03-23T09:06:33.288Z,63.5
2019-03-23T09:07:03.457Z,63.5
2019-03-23T09:07:34.008Z,63.5
2019-03-23T09:08:04.562Z,63.3
2019-03-23T09:08:35.118Z,63.3
2019-03-23T09:09:05.798Z,62.5
2019-03-23T09:09:36.342Z,62.5
2019-03-23T09:10:06.591Z,62.3
2019-03-23T09:10:36.868Z,62.3
2019-03-23T09:11:07.320Z,61.7
2019-03-23T09:11:37.969Z,61.7
2019-03-23T09:12:56.921Z,61.5
2019-03-23T09:13:56.252Z,61.6
2019-03-23T09:14:55.178Z,61.2
2019-03-23T09:15:54.607Z,61.5
2019-03-23T09:16:53.523Z,61.4
2019-03-23T09:17:24.209Z,61.4
2019-03-23T09:17:54.849Z,61.5
2019-03-23T09:18:25.491Z,61.5
2019-03-23T09:18:56.139Z,61.4
2019-03-23T09:19:26.781Z,61.4
2019-03-23T09:19:57.260Z,61.8
2019-03-23T09:20:29.836Z,61.8
2019-03-23T09:22:48.681Z,61.2
2019-03-23T09:23:48.130Z,60.8
2019-03-23T09:24:47.457Z,60.5
2019-03-23T09:25:46.689Z,60.7
2019-03-23T09:26:45.611Z,60.9
2019-03-23T09:27:44.853Z,61.3
2019-03-23T09:28:15.502Z,61.3
2019-03-23T09:28:46.051Z,61
2019-03-23T09:29:16.296Z,61
2019-03-23T09:29:46.938Z,60.5
2019-03-23T09:30:17.589Z,60.5
2019-03-23T09:30:48.043Z,60
2019-03-23T09:31:18.279Z,60
2019-03-23T09:32:40.846Z,60.2
2019-03-23T09:33:39.879Z,60.3
2019-03-23T09:34:39.122Z,60
2019-03-23T09:35:39.845Z,60.1
2019-03-23T09:36:37.982Z,59.9
2019-03-23T09:37:38.626Z,59.9
2019-03-23T09:38:36.266Z,60
2019-03-23T09:39:35.184Z,60.2
2019-03-23T09:40:11.640Z,60.2
2019-03-23T09:40:36.319Z,60.2
2019-03-23T09:41:06.868Z,60.2
2019-03-23T09:42:32.881Z,59.4
2019-03-23T09:43:32.211Z,59.8
2019-03-23T09:44:31.679Z,60.2
2019-03-23T09:45:30.509Z,59.9
2019-03-23T09:46:29.880Z,59
2019-03-23T09:47:29.120Z,58.9
2019-03-23T09:48:28.443Z,59.3
2019-03-23T09:49:27.771Z,59.3
2019-03-23T09:50:27.010Z,58.9
2019-03-23T09:50:57.242Z,58.9
2019-03-23T09:52:25.348Z,55.8
2019-03-23T09:53:24.578Z,55.2
2019-03-23T09:54:23.552Z,54.6
2019-03-23T09:55:22.675Z,54.6
2019-03-23T09:56:21.903Z,55
2019-03-23T09:57:21.274Z,55.5
2019-03-23T09:58:20.719Z,56.1
2019-03-23T09:59:19.648Z,52.6
2019-03-23T10:00:18.875Z,51.7
2019-03-23T10:01:18.305Z,51.4
2019-03-23T10:01:48.947Z,51.4
2019-03-23T10:02:19.586Z,51.5
2019-03-23T10:03:16.603Z,51.7
2019-03-23T10:04:15.826Z,51.7
2019-03-23T10:05:15.148Z,53.1
2019-03-23T10:06:14.495Z,53.4
2019-03-23T10:06:45.051Z,53.4
2019-03-23T10:07:15.703Z,53.5
2019-03-23T10:08:13.118Z,53.9
2019-03-23T10:09:12.046Z,54
2019-03-23T10:10:22.345Z,54.4
2019-03-23T10:11:10.628Z,54
2019-03-23T10:12:10.179Z,54.1
2019-03-23T10:13:09.101Z,54.8
2019-03-23T10:14:08.446Z,55
2019-03-23T10:15:07.699Z,54.4
2019-03-23T10:16:07.030Z,54.4
2019-03-23T10:17:06.269Z,54.4
2019-03-23T10:17:36.716Z,54.4
2019-03-23T10:18:07.353Z,54.5
2019-03-23T10:19:04.675Z,54.6
2019-03-23T10:20:03.923Z,54.2
2019-03-23T10:21:03.063Z,53.9
2019-03-23T10:22:02.404Z,54.6
2019-03-23T10:23:01.734Z,54.7
2019-03-23T10:24:01.067Z,53.9
2019-03-23T10:25:00.591Z,54.4
2019-03-23T10:25:59.324Z,54.5
2019-03-23T10:26:58.545Z,54.4
2019-03-23T10:27:29.186Z,54.4
2019-03-23T10:28:57.116Z,54.9
2019-03-23T10:29:56.546Z,54.4
2019-03-23T10:30:55.873Z,54.5
2019-03-23T10:31:56.120Z,54.7
2019-03-23T10:32:54.338Z,55.6
2019-03-23T10:33:53.569Z,54.4
2019-03-23T10:34:52.986Z,54.9
2019-03-23T10:35:51.908Z,55.8
2019-03-23T10:36:51.235Z,54.2
2019-03-23T10:37:21.879Z,54.2
2019-03-23T10:37:52.122Z,54.1
2019-03-23T10:38:22.271Z,54.1
2019-03-23T10:38:52.920Z,53.2
2019-03-23T10:39:23.554Z,53.2
2019-03-23T10:40:48.456Z,53
2019-03-23T10:41:47.590Z,53.4
2019-03-23T10:42:46.820Z,53.6
2019-03-23T10:43:46.144Z,53
2019-03-23T10:44:45.575Z,53
2019-03-23T10:45:44.865Z,53
2019-03-23T10:46:43.690Z,53.8
2019-03-23T10:47:14.233Z,53.8
2019-03-23T10:47:44.980Z,53.6
2019-03-23T10:48:15.041Z,53.6
2019-03-23T10:48:45.690Z,53.1
2019-03-23T10:49:16.142Z,53.1
2019-03-23T10:49:46.782Z,54.7
2019-03-23T10:50:17.016Z,54.7
2019-03-23T10:51:40.098Z,53.8
2019-03-23T10:52:39.539Z,53.6
2019-03-23T10:53:38.679Z,53.7
2019-03-23T10:54:37.817Z,53.2
2019-03-23T10:55:37.242Z,53.8
2019-03-23T10:56:36.661Z,53.2
2019-03-23T10:57:36.044Z,53
2019-03-23T10:58:06.681Z,53
2019-03-23T10:58:37.037Z,53.3
2019-03-23T10:59:07.685Z,53.3